sensor_id;sensor_type;location;lat;lon;timestamp;pressure;altitude;pressure_sealevel;temperature;humidity
70304;BME280;57712;48.752;11.348;2023-02-12T00:01:57;99426.53;;;4.10;100.00
70304;BME280;57712;48.752;11.348;2023-02-12T00:04:23;99437.91;;;4.03;100.00
70304;BME280;57712;48.752;11.348;2023-02-12T00:06:50;99442.84;;;4.01;100.00
70304;BME280;57712;48.752;11.348;2023-02-12T00:09:16;99438.84;;;4.07;100.00
70304;BME280;57712;48.752;11.348;2023-02-12T00:11:43;99428.00;;;4.07;100.00
70304;BME280;57712;48.752;11.348;2023-02-12T00:14:10;99423.38;;;4.08;100.00
70304;BME280;57712;48.752;11.348;2023-02-12T00:16:36;99423.69;;;4.06;100.00
70304;BME280;57712;48.752;11.348;2023-02-12T00:19:03;99432.00;;;4.01;100.00
70304;BME280;57712;48.752;11.348;2023-02-12T00:21:29;99436.78;;;4.04;100.00
70304;BME280;57712;48.752;11.348;2023-02-12T00:23:56;99432.38;;;3.91;100.00
70304;BME280;57712;48.752;11.348;2023-02-12T00:26:23;99433.53;;;3.81;100.00
70304;BME280;57712;48.752;11.348;2023-02-12T00:28:50;99430.84;;;3.81;100.00
70304;BME280;57712;48.752;11.348;2023-02-12T00:31:23;99431.16;;;3.80;100.00
70304;BME280;57712;48.752;11.348;2023-02-12T00:33:50;99421.78;;;3.77;100.00
70304;BME280;57712;48.752;11.348;2023-02-12T00:36:19;99421.47;;;3.70;100.00
70304;BME280;57712;48.752;11.348;2023-02-12T00:38:46;99427.38;;;3.72;100.00
70304;BME280;57712;48.752;11.348;2023-02-12T00:41:14;99421.47;;;3.70;100.00
70304;BME280;57712;48.752;11.348;2023-02-12T00:43:41;99413.53;;;3.65;100.00
70304;BME280;57712;48.752;11.348;2023-02-12T00:46:08;99422.97;;;3.59;100.00
70304;BME280;57712;48.752;11.348;2023-02-12T00:48:35;99423.72;;;3.68;100.00
70304;BME280;57712;48.752;11.348;2023-02-12T00:51:02;99425.97;;;3.66;100.00
70304;BME280;57712;48.752;11.348;2023-02-12T00:53:29;99415.97;;;3.58;100.00
70304;BME280;57712;48.752;11.348;2023-02-12T00:55:56;99421.84;;;3.60;100.00
70304;BME280;57712;48.752;11.348;2023-02-12T00:58:23;99439.53;;;3.57;100.00
70304;BME280;57712;48.752;11.348;2023-02-12T01:00:49;99430.16;;;3.55;100.00
70304;BME280;57712;48.752;11.348;2023-02-12T01:03:16;99421.03;;;3.59;100.00
70304;BME280;57712;48.752;11.348;2023-02-12T01:05:43;99429.03;;;3.56;100.00
70304;BME280;57712;48.752;11.348;2023-02-12T01:08:11;99428.84;;;3.61;100.00
70304;BME280;57712;48.752;11.348;2023-02-12T01:10:39;99435.72;;;3.58;100.00
70304;BME280;57712;48.752;11.348;2023-02-12T01:13:06;99429.81;;;3.65;100.00
70304;BME280;57712;48.752;11.348;2023-02-12T01:15:33;99429.97;;;3.60;100.00
70304;BME280;57712;48.752;11.348;2023-02-12T01:17:59;99431.38;;;3.66;100.00
70304;BME280;57712;48.752;11.348;2023-02-12T01:20:26;99433.31;;;3.65;100.00
70304;BME280;57712;48.752;11.348;2023-02-12T01:22:52;99426.91;;;3.70;100.00
70304;BME280;57712;48.752;11.348;2023-02-12T01:25:19;99436.44;;;3.76;100.00
70304;BME280;57712;48.752;11.348;2023-02-12T01:27:46;99423.72;;;3.68;100.00
70304;BME280;57712;48.752;11.348;2023-02-12T01:30:14;99420.56;;;3.66;100.00
70304;BME280;57712;48.752;11.348;2023-02-12T01:32:41;99417.22;;;3.60;100.00
70304;BME280;57712;48.752;11.348;2023-02-12T01:35:08;99426.75;;;3.66;100.00
70304;BME280;57712;48.752;11.348;2023-02-12T01:37:36;99423.72;;;3.68;100.00
70304;BME280;57712;48.752;11.348;2023-02-12T01:40:06;99422.41;;;3.74;100.00
70304;BME280;57712;48.752;11.348;2023-02-12T01:42:33;99420.38;;;3.62;100.00
70304;BME280;57712;48.752;11.348;2023-02-12T01:47:43;99425.59;;;3.76;100.00
70304;BME280;57712;48.752;11.348;2023-02-12T01:50:13;99429.41;;;3.75;100.00
70304;BME280;57712;48.752;11.348;2023-02-12T01:52:44;99430.06;;;3.72;100.00
70304;BME280;57712;48.752;11.348;2023-02-12T01:55:14;99430.53;;;3.74;100.00
70304;BME280;57712;48.752;11.348;2023-02-12T01:57:42;99425.78;;;3.71;100.00
70304;BME280;57712;48.752;11.348;2023-02-12T02:00:17;99431.66;;;3.73;100.00
70304;BME280;57712;48.752;11.348;2023-02-12T02:02:48;99433.91;;;3.71;100.00
70304;BME280;57712;48.752;11.348;2023-02-12T02:05:22;99433.75;;;3.76;100.00
70304;BME280;57712;48.752;11.348;2023-02-12T02:07:51;99429.81;;;3.65;100.00
70304;BME280;57712;48.752;11.348;2023-02-12T02:10:18;99427.03;;;3.73;100.00
70304;BME280;57712;48.752;11.348;2023-02-12T02:12:45;99433.91;;;3.71;100.00
70304;BME280;57712;48.752;11.348;2023-02-12T02:15:30;99426.47;;;3.59;100.00
70304;BME280;57712;48.752;11.348;2023-02-12T02:18:06;99416.72;;;3.67;100.00
70304;BME280;57712;48.752;11.348;2023-02-12T02:20:49;99416.88;;;3.62;100.00
70304;BME280;57712;48.752;11.348;2023-02-12T02:23:54;99428.50;;;3.62;100.00
70304;BME280;57712;48.752;11.348;2023-02-12T02:31:57;99432.97;;;3.67;100.00
70304;BME280;57712;48.752;11.348;2023-02-12T02:34:58;99436.50;;;3.59;100.00
70304;BME280;57712;48.752;11.348;2023-02-12T02:37:37;99441.44;;;3.65;100.00
70304;BME280;57712;48.752;11.348;2023-02-12T02:40:17;99434.25;;;3.61;100.00
70304;BME280;57712;48.752;11.348;2023-02-12T02:43:04;99437.16;;;3.56;100.00
70304;BME280;57712;48.752;11.348;2023-02-12T02:45:45;99433.22;;;3.44;100.00
70304;BME280;57712;48.752;11.348;2023-02-12T02:48:17;99438.94;;;3.43;100.00
70304;BME280;57712;48.752;11.348;2023-02-12T02:50:53;99430.06;;;3.34;100.00
70304;BME280;57712;48.752;11.348;2023-02-12T02:53:29;99438.78;;;3.39;100.00
70304;BME280;57712;48.752;11.348;2023-02-12T02:56:00;99435.44;;;3.42;100.00
70304;BME280;57712;48.752;11.348;2023-02-12T02:58:34;99438.03;;;3.30;100.00
70304;BME280;57712;48.752;11.348;2023-02-12T03:01:02;99440.25;;;3.37;100.00
70304;BME280;57712;48.752;11.348;2023-02-12T03:03:34;99435.50;;;3.25;100.00
70304;BME280;57712;48.752;11.348;2023-02-12T03:06:08;99430.69;;;3.31;100.00
70304;BME280;57712;48.752;11.348;2023-02-12T03:08:41;99435.47;;;3.34;100.00
70304;BME280;57712;48.752;11.348;2023-02-12T03:11:14;99429.91;;;3.30;100.00
70304;BME280;57712;48.752;11.348;2023-02-12T03:17:24;99443.63;;;3.25;100.00
70304;BME280;57712;48.752;11.348;2023-02-12T03:19:28;99446.81;;;3.27;100.00
70304;BME280;57712;48.752;11.348;2023-02-12T03:24:32;99440.91;;;3.34;100.00
70304;BME280;57712;48.752;11.348;2023-02-12T03:29:36;99453.47;;;3.38;100.00
70304;BME280;57712;48.752;11.348;2023-02-12T03:34:46;99452.03;;;3.32;100.00
70304;BME280;57712;48.752;11.348;2023-02-12T03:37:32;99455.56;;;3.24;100.00
70304;BME280;57712;48.752;11.348;2023-02-12T03:40:18;99459.41;;;3.23;100.00
70304;BME280;57712;48.752;11.348;2023-02-12T03:42:55;99466.41;;;3.24;100.00
70304;BME280;57712;48.752;11.348;2023-02-12T03:45:44;99461.47;;;3.26;100.00
70304;BME280;57712;48.752;11.348;2023-02-12T03:50:48;99458.28;;;3.24;100.00
70304;BME280;57712;48.752;11.348;2023-02-12T03:53:19;99468.81;;;3.17;100.00
70304;BME280;57712;48.752;11.348;2023-02-12T03:55:48;99470.38;;;3.18;100.00
70304;BME280;57712;48.752;11.348;2023-02-12T03:58:21;99468.66;;;3.13;100.00
70304;BME280;57712;48.752;11.348;2023-02-12T04:00:50;99479.63;;;3.17;100.00
70304;BME280;57712;48.752;11.348;2023-02-12T04:03:17;99478.19;;;3.19;100.00
70304;BME280;57712;48.752;11.348;2023-02-12T04:05:44;99477.25;;;3.15;100.00
70304;BME280;57712;48.752;11.348;2023-02-12T04:08:11;99481.69;;;3.11;100.00
70304;BME280;57712;48.752;11.348;2023-02-12T04:10:55;99493.16;;;3.08;100.00
70304;BME280;57712;48.752;11.348;2023-02-12T04:16:24;99479.03;;;3.03;100.00
70304;BME280;57712;48.752;11.348;2023-02-12T04:18:55;99483.63;;;3.02;100.00
70304;BME280;57712;48.752;11.348;2023-02-12T04:21:59;99491.59;;;3.07;100.00
70304;BME280;57712;48.752;11.348;2023-02-12T04:27:13;99484.09;;;2.96;100.00
70304;BME280;57712;48.752;11.348;2023-02-12T04:29:52;99490.78;;;2.89;100.00
70304;BME280;57712;48.752;11.348;2023-02-12T04:32:32;99488.88;;;2.99;100.00
70304;BME280;57712;48.752;11.348;2023-02-12T04:35:19;99489.38;;;2.92;100.00
70304;BME280;57712;48.752;11.348;2023-02-12T04:37:49;99498.59;;;3.00;100.00
70304;BME280;57712;48.752;11.348;2023-02-12T04:40:18;99496.84;;;2.95;100.00
70304;BME280;57712;48.752;11.348;2023-02-12T04:42:47;99500.97;;;3.10;100.00
70304;BME280;57712;48.752;11.348;2023-02-12T04:45:28;99497.59;;;3.22;100.00
70304;BME280;57712;48.752;11.348;2023-02-12T04:47:55;99503.53;;;3.15;100.00
70304;BME280;57712;48.752;11.348;2023-02-12T04:50:22;99496.34;;;3.10;100.00
70304;BME280;57712;48.752;11.348;2023-02-12T04:52:48;99503.06;;;3.04;100.00
70304;BME280;57712;48.752;11.348;2023-02-12T04:55:15;99504.78;;;3.09;100.00
70304;BME280;57712;48.752;11.348;2023-02-12T04:57:42;99500.97;;;3.10;100.00
70304;BME280;57712;48.752;11.348;2023-02-12T05:00:12;99504.31;;;3.24;100.00
70304;BME280;57712;48.752;11.348;2023-02-12T05:02:38;99502.09;;;3.17;100.00
70304;BME280;57712;48.752;11.348;2023-02-12T05:05:05;99508.16;;;3.23;100.00
70304;BME280;57712;48.752;11.348;2023-02-12T05:07:32;99509.69;;;3.33;100.00
70304;BME280;57712;48.752;11.348;2023-02-12T05:09:59;99513.06;;;3.30;100.00
70304;BME280;57712;48.752;11.348;2023-02-12T05:12:25;99509.25;;;3.22;100.00
70304;BME280;57712;48.752;11.348;2023-02-12T05:14:52;99513.72;;;3.18;100.00
70304;BME280;57712;48.752;11.348;2023-02-12T05:17:21;99512.44;;;3.24;100.00
70304;BME280;57712;48.752;11.348;2023-02-12T05:19:48;99510.50;;;3.33;100.00
70304;BME280;57712;48.752;11.348;2023-02-12T05:22:14;99507.63;;;3.38;100.00
70304;BME280;57712;48.752;11.348;2023-02-12T05:24:41;99515.56;;;3.43;100.00
70304;BME280;57712;48.752;11.348;2023-02-12T05:27:08;99510.16;;;3.43;100.00
70304;BME280;57712;48.752;11.348;2023-02-12T05:29:35;99508.09;;;3.40;100.00
70304;BME280;57712;48.752;11.348;2023-02-12T05:32:02;99521.00;;;3.43;100.00
70304;BME280;57712;48.752;11.348;2023-02-12T05:34:29;99525.00;;;3.46;100.00
70304;BME280;57712;48.752;11.348;2023-02-12T05:36:56;99525.00;;;3.37;100.00
70304;BME280;57712;48.752;11.348;2023-02-12T05:39:22;99523.41;;;3.36;100.00
70304;BME280;57712;48.752;11.348;2023-02-12T05:41:48;99523.88;;;3.38;100.00
70304;BME280;57712;48.752;11.348;2023-02-12T05:44:15;99533.78;;;3.34;100.00
70304;BME280;57712;48.752;11.348;2023-02-12T05:46:42;99528.50;;;3.38;100.00
70304;BME280;57712;48.752;11.348;2023-02-12T05:49:09;99533.78;;;3.34;100.00
70304;BME280;57712;48.752;11.348;2023-02-12T05:51:36;99532.00;;;3.38;100.00
70304;BME280;57712;48.752;11.348;2023-02-12T05:54:05;99536.78;;;3.33;100.00
70304;BME280;57712;48.752;11.348;2023-02-12T05:56:40;99543.63;;;3.47;100.00
70304;BME280;57712;48.752;11.348;2023-02-12T05:59:12;99539.81;;;3.48;100.00
70304;BME280;57712;48.752;11.348;2023-02-12T06:01:42;99534.06;;;3.41;100.00
70304;BME280;57712;48.752;11.348;2023-02-12T06:04:17;99537.75;;;3.45;100.00
70304;BME280;57712;48.752;11.348;2023-02-12T06:06:44;99549.72;;;3.44;100.00
70304;BME280;57712;48.752;11.348;2023-02-12T06:09:12;99543.63;;;3.47;100.00
70304;BME280;57712;48.752;11.348;2023-02-12T06:11:40;99542.84;;;3.47;100.00
70304;BME280;57712;48.752;11.348;2023-02-12T06:14:09;99538.88;;;3.44;100.00
70304;BME280;57712;48.752;11.348;2023-02-12T06:16:36;99550.50;;;3.45;100.00
70304;BME280;57712;48.752;11.348;2023-02-12T06:19:08;99559.88;;;3.47;100.00
70304;BME280;57712;48.752;11.348;2023-02-12T06:21:34;99558.91;;;3.43;100.00
70304;BME280;57712;48.752;11.348;2023-02-12T06:24:01;99562.94;;;3.46;100.00
70304;BME280;57712;48.752;11.348;2023-02-12T06:26:27;99560.03;;;3.51;100.00
70304;BME280;57712;48.752;11.348;2023-02-12T06:28:54;99561.63;;;3.52;100.00
70304;BME280;57712;48.752;11.348;2023-02-12T06:31:23;99562.41;;;3.53;100.00
70304;BME280;57712;48.752;11.348;2023-02-12T06:33:50;99555.75;;;3.41;100.00
70304;BME280;57712;48.752;11.348;2023-02-12T06:36:18;99568.03;;;3.47;100.00
70304;BME280;57712;48.752;11.348;2023-02-12T06:38:45;99568.03;;;3.39;100.00
70304;BME280;57712;48.752;11.348;2023-02-12T06:41:12;99560.38;;;3.41;100.00
70304;BME280;57712;48.752;11.348;2023-02-12T06:43:39;99566.44;;;3.46;100.00
70304;BME280;57712;48.752;11.348;2023-02-12T06:46:07;99570.59;;;3.44;100.00
70304;BME280;57712;48.752;11.348;2023-02-12T06:48:34;99570.72;;;3.47;100.00
70304;BME280;57712;48.752;11.348;2023-02-12T06:51:10;99565.78;;;3.41;100.00
70304;BME280;57712;48.752;11.348;2023-02-12T06:53:37;99562.28;;;3.40;100.00
70304;BME280;57712;48.752;11.348;2023-02-12T06:56:05;99563.53;;;3.52;100.00
70304;BME280;57712;48.752;11.348;2023-02-12T06:58:32;99565.00;;;3.40;100.00
70304;BME280;57712;48.752;11.348;2023-02-12T07:01:16;99562.94;;;3.46;100.00
70304;BME280;57712;48.752;11.348;2023-02-12T07:03:47;99561.81;;;3.38;100.00
70304;BME280;57712;48.752;11.348;2023-02-12T07:06:14;99567.69;;;3.40;100.00
70304;BME280;57712;48.752;11.348;2023-02-12T07:08:40;99569.94;;;3.38;100.00
70304;BME280;57712;48.752;11.348;2023-02-12T07:11:07;99569.94;;;3.30;100.00
70304;BME280;57712;48.752;11.348;2023-02-12T07:13:33;99567.38;;;3.42;100.00
70304;BME280;57712;48.752;11.348;2023-02-12T07:16:08;99561.00;;;3.46;100.00
70304;BME280;57712;48.752;11.348;2023-02-12T07:18:35;99561.16;;;3.41;100.00
70304;BME280;57712;48.752;11.348;2023-02-12T07:21:03;99557.19;;;3.39;100.00
70304;BME280;57712;48.752;11.348;2023-02-12T07:23:31;99562.47;;;3.35;100.00
70304;BME280;57712;48.752;11.348;2023-02-12T07:26:00;99563.72;;;3.29;100.00
70304;BME280;57712;48.752;11.348;2023-02-12T07:28:27;99558.63;;;3.36;100.00
70304;BME280;57712;48.752;11.348;2023-02-12T07:30:53;99545.22;;;3.48;100.00
70304;BME280;57712;48.752;11.348;2023-02-12T07:33:20;99558.78;;;3.48;100.00
70304;BME280;57712;48.752;11.348;2023-02-12T07:35:46;99553.16;;;3.54;100.00
70304;BME280;57712;48.752;11.348;2023-02-12T07:38:13;99552.22;;;3.67;100.00
70304;BME280;57712;48.752;11.348;2023-02-12T07:40:39;99550.44;;;3.62;100.00
70304;BME280;57712;48.752;11.348;2023-02-12T07:43:06;99554.47;;;3.39;100.00
70304;BME280;57712;48.752;11.348;2023-02-12T07:45:32;99557.50;;;3.37;100.00
70304;BME280;57712;48.752;11.348;2023-02-12T07:47:59;99560.69;;;3.48;100.00
70304;BME280;57712;48.752;11.348;2023-02-12T07:50:25;99557.66;;;3.32;100.00
70304;BME280;57712;48.752;11.348;2023-02-12T07:52:52;99561.94;;;3.42;100.00
70304;BME280;57712;48.752;11.348;2023-02-12T07:55:19;99564.50;;;3.47;100.00
70304;BME280;57712;48.752;11.348;2023-02-12T07:57:45;99561.34;;;3.36;100.00
70304;BME280;57712;48.752;11.348;2023-02-12T08:00:12;99565.91;;;3.62;100.00
70304;BME280;57712;48.752;11.348;2023-02-12T08:02:39;99565.91;;;3.62;100.00
70304;BME280;57712;48.752;11.348;2023-02-12T08:05:06;99573.88;;;3.75;100.00
70304;BME280;57712;48.752;11.348;2023-02-12T08:07:33;99576.72;;;3.79;100.00
70304;BME280;57712;48.752;11.348;2023-02-12T08:09:59;99574.63;;;3.93;100.00
70304;BME280;57712;48.752;11.348;2023-02-12T08:12:26;99579.41;;;3.96;100.00
70304;BME280;57712;48.752;11.348;2023-02-12T08:14:52;99577.97;;;3.99;100.00
70304;BME280;57712;48.752;11.348;2023-02-12T08:17:19;99580.28;;;4.18;100.00
70304;BME280;57712;48.752;11.348;2023-02-12T08:19:46;99579.81;;;4.16;100.00
70304;BME280;57712;48.752;11.348;2023-02-12T08:22:12;99579.16;;;4.19;100.00
70304;BME280;57712;48.752;11.348;2023-02-12T08:24:39;99575.13;;;4.33;100.00
70304;BME280;57712;48.752;11.348;2023-02-12T08:27:06;99573.03;;;4.39;100.00
70304;BME280;57712;48.752;11.348;2023-02-12T08:29:32;99563.03;;;4.60;100.00
70304;BME280;57712;48.752;11.348;2023-02-12T08:32:01;99569.69;;;4.63;100.00
70304;BME280;57712;48.752;11.348;2023-02-12T08:34:31;99558.97;;;4.67;100.00
70304;BME280;57712;48.752;11.348;2023-02-12T08:36:59;99564.53;;;4.49;100.00
70304;BME280;57712;48.752;11.348;2023-02-12T08:39:28;99565.25;;;4.58;100.00
70304;BME280;57712;48.752;11.348;2023-02-12T08:41:56;99570.78;;;4.41;100.00
70304;BME280;57712;48.752;11.348;2023-02-12T08:44:23;99569.31;;;4.44;100.00
70304;BME280;57712;48.752;11.348;2023-02-12T08:46:52;99576.28;;;4.53;100.00
70304;BME280;57712;48.752;11.348;2023-02-12T08:49:21;99577.56;;;4.56;100.00
70304;BME280;57712;48.752;11.348;2023-02-12T08:51:50;99582.41;;;4.42;100.00
70304;BME280;57712;48.752;11.348;2023-02-12T08:54:22;99572.00;;;4.52;100.00
70304;BME280;57712;48.752;11.348;2023-02-12T08:56:49;99575.94;;;4.25;100.00
70304;BME280;57712;48.752;11.348;2023-02-12T08:59:16;99575.91;;;4.34;100.00
70304;BME280;57712;48.752;11.348;2023-02-12T09:01:43;99578.44;;;4.39;100.00
70304;BME280;57712;48.752;11.348;2023-02-12T09:04:14;99580.22;;;4.64;100.00
70304;BME280;57712;48.752;11.348;2023-02-12T09:06:43;99587.69;;;4.68;100.00
70304;BME280;57712;48.752;11.348;2023-02-12T09:09:10;99584.22;;;4.88;100.00
70304;BME280;57712;48.752;11.348;2023-02-12T09:11:38;99586.38;;;5.03;100.00
70304;BME280;57712;48.752;11.348;2023-02-12T09:14:09;99581.88;;;5.07;100.00
70304;BME280;57712;48.752;11.348;2023-02-12T09:16:37;99579.88;;;5.16;100.00
70304;BME280;57712;48.752;11.348;2023-02-12T09:19:06;99591.66;;;5.00;100.00
70304;BME280;57712;48.752;11.348;2023-02-12T09:21:32;99595.38;;;5.16;100.00
70304;BME280;57712;48.752;11.348;2023-02-12T09:24:00;99585.59;;;5.24;100.00
70304;BME280;57712;48.752;11.348;2023-02-12T09:26:27;99589.44;;;5.22;100.00
70304;BME280;57712;48.752;11.348;2023-02-12T09:28:54;99580.94;;;5.45;100.00
70304;BME280;57712;48.752;11.348;2023-02-12T09:31:25;99589.66;;;5.50;100.00
70304;BME280;57712;48.752;11.348;2023-02-12T09:33:54;99587.75;;;5.51;100.00
70304;BME280;57712;48.752;11.348;2023-02-12T09:36:21;99595.97;;;5.63;100.00
70304;BME280;57712;48.752;11.348;2023-02-12T09:38:48;99589.81;;;5.54;100.00
70304;BME280;57712;48.752;11.348;2023-02-12T09:44:13;99595.75;;;5.68;100.00
70304;BME280;57712;48.752;11.348;2023-02-12T09:51:51;99595.78;;;5.80;100.00
70304;BME280;57712;48.752;11.348;2023-02-12T09:54:22;99602.09;;;5.72;100.00
70304;BME280;57712;48.752;11.348;2023-02-12T09:56:57;99601.28;;;5.93;100.00
70304;BME280;57712;48.752;11.348;2023-02-12T10:01:52;99599.38;;;5.93;100.00
70304;BME280;57712;48.752;11.348;2023-02-12T10:04:18;99599.63;;;6.00;100.00
70304;BME280;57712;48.752;11.348;2023-02-12T10:06:51;99605.75;;;5.97;100.00
70304;BME280;57712;48.752;11.348;2023-02-12T10:09:31;99596.47;;;6.11;100.00
70304;BME280;57712;48.752;11.348;2023-02-12T10:23:44;99603.19;;;6.25;100.00
70304;BME280;57712;48.752;11.348;2023-02-12T10:26:27;99595.19;;;5.96;100.00
70304;BME280;57712;48.752;11.348;2023-02-12T10:28:58;99598.50;;;6.14;100.00
70304;BME280;57712;48.752;11.348;2023-02-12T10:31:35;99594.97;;;6.01;100.00
70304;BME280;57712;48.752;11.348;2023-02-12T10:34:20;99601.44;;;5.96;100.00
70304;BME280;57712;48.752;11.348;2023-02-12T10:36:49;99602.69;;;5.99;100.00
70304;BME280;57712;48.752;11.348;2023-02-12T10:39:22;99597.38;;;6.15;100.00
70304;BME280;57712;48.752;11.348;2023-02-12T10:42:08;99602.72;;;6.35;100.00
70304;BME280;57712;48.752;11.348;2023-02-12T10:44:36;99596.19;;;6.49;100.00
70304;BME280;57712;48.752;11.348;2023-02-12T10:47:03;99594.16;;;6.58;100.00
70304;BME280;57712;48.752;11.348;2023-02-12T10:49:31;99598.00;;;6.69;100.00
70304;BME280;57712;48.752;11.348;2023-02-12T10:54:40;99598.22;;;6.64;100.00
70304;BME280;57712;48.752;11.348;2023-02-12T10:57:14;99601.41;;;6.78;100.00
70304;BME280;57712;48.752;11.348;2023-02-12T10:59:44;99596.16;;;6.85;100.00
70304;BME280;57712;48.752;11.348;2023-02-12T11:02:37;99588.69;;;6.82;100.00
70304;BME280;57712;48.752;11.348;2023-02-12T11:05:23;99596.81;;;7.07;100.00
70304;BME280;57712;48.752;11.348;2023-02-12T11:07:50;99596.91;;;7.22;100.00
70304;BME280;57712;48.752;11.348;2023-02-12T11:10:28;99585.31;;;7.26;100.00
70304;BME280;57712;48.752;11.348;2023-02-12T11:13:00;99584.03;;;7.35;100.00
70304;BME280;57712;48.752;11.348;2023-02-12T11:15:51;99583.75;;;7.52;100.00
70304;BME280;57712;48.752;11.348;2023-02-12T11:18:26;99585.22;;;7.50;100.00
70304;BME280;57712;48.752;11.348;2023-02-12T11:23:32;99590.59;;;6.94;100.00
70304;BME280;57712;48.752;11.348;2023-02-12T11:31:27;99590.03;;;7.01;100.00
70304;BME280;57712;48.752;11.348;2023-02-12T11:36:42;99591.13;;;7.12;100.00
70304;BME280;57712;48.752;11.348;2023-02-12T11:41:51;99591.81;;;7.21;100.00
70304;BME280;57712;48.752;11.348;2023-02-12T11:46:56;99588.78;;;7.38;100.00
70304;BME280;57712;48.752;11.348;2023-02-12T11:49:37;99587.50;;;7.20;100.00
70304;BME280;57712;48.752;11.348;2023-02-12T11:52:05;99584.78;;;7.08;100.00
70304;BME280;57712;48.752;11.348;2023-02-12T11:54:40;99584.53;;;7.13;100.00
70304;BME280;57712;48.752;11.348;2023-02-12T11:57:38;99586.25;;;7.05;100.00
70304;BME280;57712;48.752;11.348;2023-02-12T12:00:33;99568.41;;;7.08;100.00
70304;BME280;57712;48.752;11.348;2023-02-12T12:03:12;99578.97;;;7.21;100.00
70304;BME280;57712;48.752;11.348;2023-02-12T12:05:46;99568.16;;;7.25;100.00
70304;BME280;57712;48.752;11.348;2023-02-12T12:08:27;99574.41;;;7.26;100.00
70304;BME280;57712;48.752;11.348;2023-02-12T12:11:13;99568.16;;;7.25;100.00
70304;BME280;57712;48.752;11.348;2023-02-12T12:13:48;99568.72;;;7.31;100.00
70304;BME280;57712;48.752;11.348;2023-02-12T12:16:28;99571.53;;;7.34;100.00
70304;BME280;57712;48.752;11.348;2023-02-12T12:19:31;99578.84;;;7.18;100.00
70304;BME280;57712;48.752;11.348;2023-02-12T12:25:24;99569.25;;;7.36;100.00
70304;BME280;57712;48.752;11.348;2023-02-12T12:28:00;99566.59;;;7.12;100.00
70304;BME280;57712;48.752;11.348;2023-02-12T12:30:40;99569.03;;;7.41;100.00
70304;BME280;57712;48.752;11.348;2023-02-12T12:36:08;99566.25;;;7.53;100.00
70304;BME280;57712;48.752;11.348;2023-02-12T12:44:48;99557.34;;;7.57;100.00
70304;BME280;57712;48.752;11.348;2023-02-12T12:47:57;99545.66;;;7.56;100.00
70304;BME280;57712;48.752;11.348;2023-02-12T12:50:51;99555.63;;;7.64;100.00
70304;BME280;57712;48.752;11.348;2023-02-12T13:13:21;99553.16;;;7.19;100.00
70304;BME280;57712;48.752;11.348;2023-02-12T13:16:06;99557.78;;;7.03;100.00
70304;BME280;57712;48.752;11.348;2023-02-12T13:24:06;99553.13;;;9.01;100.00
70304;BME280;57712;48.752;11.348;2023-02-12T13:26:52;99546.34;;;9.92;100.00
70304;BME280;57712;48.752;11.348;2023-02-12T13:32:16;99536.03;;;9.62;100.00
70304;BME280;57712;48.752;11.348;2023-02-12T13:34:42;99534.97;;;10.12;100.00
70304;BME280;57712;48.752;11.348;2023-02-12T13:37:15;99534.03;;;10.51;100.00
70304;BME280;57712;48.752;11.348;2023-02-12T13:39:46;99528.31;;;10.86;100.00
70304;BME280;57712;48.752;11.348;2023-02-12T13:47:58;99527.22;;;11.91;100.00
70304;BME280;57712;48.752;11.348;2023-02-12T13:50:39;99530.94;;;11.76;100.00
70304;BME280;57712;48.752;11.348;2023-02-12T13:56:06;99520.16;;;11.56;100.00
70304;BME280;57712;48.752;11.348;2023-02-12T13:58:38;99526.59;;;10.25;100.00
70304;BME280;57712;48.752;11.348;2023-02-12T14:04:13;99524.34;;;9.46;100.00
70304;BME280;57712;48.752;11.348;2023-02-12T14:06:54;99526.44;;;8.59;100.00
70304;BME280;57712;48.752;11.348;2023-02-12T14:12:27;99523.53;;;8.68;100.00
70304;BME280;57712;48.752;11.348;2023-02-12T14:15:37;99529.59;;;8.61;100.00
70304;BME280;57712;48.752;11.348;2023-02-12T14:18:27;99523.97;;;8.23;100.00
70304;BME280;57712;48.752;11.348;2023-02-12T14:23:43;99517.31;;;8.04;100.00
70304;BME280;57712;48.752;11.348;2023-02-12T14:26:12;99512.66;;;8.05;100.00
70304;BME280;57712;48.752;11.348;2023-02-12T14:33:51;99523.19;;;8.06;100.00
70304;BME280;57712;48.752;11.348;2023-02-12T14:36:36;99509.09;;;7.89;100.00
70304;BME280;57712;48.752;11.348;2023-02-12T14:41:54;99511.81;;;7.73;100.00
70304;BME280;57712;48.752;11.348;2023-02-12T14:46:51;99517.81;;;7.35;100.00
70304;BME280;57712;48.752;11.348;2023-02-12T14:49:24;99521.59;;;7.30;100.00
70304;BME280;57712;48.752;11.348;2023-02-12T14:54:34;99500.22;;;7.76;100.00
70304;BME280;57712;48.752;11.348;2023-02-12T14:57:07;99507.56;;;7.60;100.00
70304;BME280;57712;48.752;11.348;2023-02-12T14:59:38;99509.56;;;7.47;100.00
70304;BME280;57712;48.752;11.348;2023-02-12T15:02:12;99505.97;;;7.59;100.00
70304;BME280;57712;48.752;11.348;2023-02-12T15:04:43;99502.81;;;7.57;100.00
70304;BME280;57712;48.752;11.348;2023-02-12T15:07:13;99495.91;;;7.31;100.00
70304;BME280;57712;48.752;11.348;2023-02-12T15:09:50;99496.59;;;7.28;100.00
70304;BME280;57712;48.752;11.348;2023-02-12T15:12:21;99500.66;;;7.34;100.00
70304;BME280;57712;48.752;11.348;2023-02-12T15:15:00;99499.66;;;7.55;100.00
70304;BME280;57712;48.752;11.348;2023-02-12T15:17:33;99500.16;;;7.44;100.00
70304;BME280;57712;48.752;11.348;2023-02-12T15:20:25;99500.66;;;7.34;100.00
70304;BME280;57712;48.752;11.348;2023-02-12T15:22:57;99503.53;;;7.53;100.00
70304;BME280;57712;48.752;11.348;2023-02-12T15:25:26;99501.06;;;7.64;100.00
70304;BME280;57712;48.752;11.348;2023-02-12T15:27:57;99496.56;;;7.56;100.00
70304;BME280;57712;48.752;11.348;2023-02-12T15:30:27;99499.72;;;7.42;100.00
70304;BME280;57712;48.752;11.348;2023-02-12T15:32:56;99493.41;;;7.54;100.00